createdAt,value
2019-01-05T00:04:30.052Z,5.52
2019-01-05T00:09:56.235Z,5.55
2019-01-05T00:15:17.571Z,5.56
2019-01-05T00:20:54.888Z,5.60
2019-01-05T00:26:06.117Z,5.62
2019-01-05T00:31:26.715Z,5.66
2019-01-05T00:36:58.005Z,5.70
2019-01-05T00:42:19.911Z,5.70
2019-01-05T00:47:43.719Z,5.74
2019-01-05T00:53:09.926Z,5.76
2019-01-05T00:58:26.739Z,5.77
2019-01-05T01:03:58.013Z,5.79
2019-01-05T01:09:09.854Z,5.81
2019-01-05T01:14:30.633Z,5.83
2019-01-05T01:19:51.263Z,5.84
2019-01-05T01:25:22.030Z,5.87
2019-01-05T01:30:40.692Z,5.90
2019-01-05T01:36:03.925Z,5.92
2019-01-05T01:41:30.759Z,5.94
2019-01-05T01:47:06.686Z,5.96
2019-01-05T01:52:30.898Z,5.98
2019-01-05T01:57:54.624Z,6.00
2019-01-05T02:03:17.383Z,6.03
2019-01-05T02:08:43.073Z,6.04
2019-01-05T02:14:10.787Z,6.07
2019-01-05T02:19:38.419Z,6.09
2019-01-05T02:26:01.198Z,6.11
2019-01-05T02:32:17.138Z,6.12
2019-01-05T02:38:30.484Z,6.14
2019-01-05T02:44:23.907Z,6.17
2019-01-05T02:50:40.815Z,6.19
2019-01-05T02:57:20.074Z,6.21
2019-01-05T03:03:11.863Z,6.24
2019-01-05T03:09:19.059Z,6.28
2019-01-05T03:15:30.144Z,6.32
2019-01-05T03:21:43.486Z,6.36
2019-01-05T03:27:36.188Z,6.39
2019-01-05T03:34:19.369Z,6.43
2019-01-05T03:40:27.521Z,6.45
2019-01-05T03:46:40.760Z,6.49
2019-01-05T03:52:48.649Z,6.51
2019-01-05T03:59:10.066Z,6.55
2019-01-05T04:05:31.591Z,6.57
2019-01-05T04:11:41.465Z,6.61
2019-01-05T04:18:15.871Z,6.66
2019-01-05T04:24:46.677Z,6.68
2019-01-05T04:31:20.130Z,6.71
2019-01-05T04:38:10.416Z,6.75
2019-01-05T04:44:34.491Z,6.80
2019-01-05T04:50:32.485Z,6.84
2019-01-05T04:57:15.273Z,6.87
2019-01-05T05:03:33.823Z,6.91
2019-01-05T05:10:21.257Z,6.94
2019-01-05T05:16:54.954Z,6.95
2019-01-05T05:23:21.496Z,7.00
2019-01-05T05:29:28.328Z,7.01
2019-01-05T05:35:36.821Z,7.01
2019-01-05T05:42:18.717Z,7.05
2019-01-05T05:48:23.600Z,7.05
2019-01-05T05:54:56.321Z,7.08
2019-01-05T06:01:09.316Z,7.07
2019-01-05T06:07:36.815Z,7.10
2019-01-05T06:14:09.201Z,7.10
2019-01-05T06:20:48.284Z,7.12
2019-01-05T06:27:10.282Z,7.14
2019-01-05T06:33:30.346Z,7.16
2019-01-05T06:40:14.104Z,7.18
2019-01-05T06:47:25.336Z,7.21
2019-01-05T06:53:54.286Z,7.22
2019-01-05T07:00:20.894Z,7.25
2019-01-05T07:06:28.805Z,7.26
2019-01-05T07:12:39.717Z,7.29
2019-01-05T07:19:02.233Z,7.30
2019-01-05T07:25:19.651Z,7.30
2019-01-05T07:31:24.856Z,7.29
2019-01-05T07:37:43.408Z,7.30
2019-01-05T07:44:20.022Z,7.33
2019-01-05T07:50:49.524Z,7.32
2019-01-05T07:57:20.722Z,7.32
2019-01-05T08:03:57.976Z,7.33
2019-01-05T08:10:16.774Z,7.35
2019-01-05T08:17:10.369Z,7.36
2019-01-05T08:23:16.009Z,7.38
2019-01-05T08:30:03.274Z,7.42
2019-01-05T08:36:44.864Z,7.49
2019-01-05T08:43:07.288Z,7.56
2019-01-05T08:49:33.354Z,7.61
2019-01-05T08:56:22.689Z,7.66
2019-01-05T09:02:30.376Z,7.68
2019-01-05T09:08:37.319Z,7.69
2019-01-05T09:14:41.636Z,7.82
2019-01-05T09:21:09.950Z,7.92
2019-01-05T09:27:25.905Z,8.08
2019-01-05T09:33:31.827Z,8.21
2019-01-05T09:39:42.159Z,8.92
2019-01-05T09:45:55.840Z,9.38
2019-01-05T09:52:19.399Z,10.01
2019-01-05T09:58:34.667Z,9.84
2019-01-05T10:04:53.226Z,9.52
2019-01-05T10:11:16.912Z,9.46
2019-01-05T10:17:32.319Z,10.01
2019-01-05T10:23:39.557Z,10.49
2019-01-05T10:30:24.788Z,10.44
2019-01-05T10:36:26.771Z,10.50
2019-01-05T10:42:46.211Z,10.56
2019-01-05T10:49:28.664Z,10.23
2019-01-05T10:55:31.430Z,9.96
2019-01-05T11:01:43.237Z,9.88
2019-01-05T11:07:51.105Z,9.76
2019-01-05T11:14:34.646Z,9.66
2019-01-05T11:21:06.787Z,9.61
2019-01-05T11:27:52.720Z,9.57
2019-01-05T11:34:25.129Z,9.59
2019-01-05T11:40:22.765Z,9.63
2019-01-05T11:46:49.403Z,9.60
2019-01-05T11:53:13.776Z,9.61
2019-01-05T11:59:49.301Z,9.68
2019-01-05T12:06:25.772Z,9.74
2019-01-05T12:12:21.638Z,9.67
2019-01-05T12:18:59.087Z,9.59
2019-01-05T12:25:28.358Z,9.51
2019-01-05T12:32:00.758Z,9.39
2019-01-05T12:38:01.406Z,9.32
2019-01-05T12:44:04.076Z,9.27
2019-01-05T12:50:42.444Z,9.23
2019-01-05T12:56:58.689Z,9.23
2019-01-05T13:03:16.133Z,9.28
2019-01-05T13:09:27.534Z,9.24
2019-01-05T13:15:56.460Z,9.19
2019-01-05T13:21:50.581Z,9.20
2019-01-05T13:28:06.511Z,9.19
2019-01-05T13:34:49.879Z,9.16
2019-01-05T13:41:18.752Z,9.12
2019-01-05T13:47:39.489Z,9.07
2019-01-05T13:53:22.197Z,9.04
2019-01-05T13:58:47.966Z,9.02
2019-01-05T14:04:08.236Z,8.96
2019-01-05T14:09:35.812Z,8.89
2019-01-05T14:15:06.593Z,8.81
2019-01-05T14:20:23.755Z,8.74
2019-01-05T14:25:51.608Z,8.69
2019-01-05T14:31:12.346Z,8.63
2019-01-05T14:36:32.670Z,8.59
2019-01-05T14:41:53.078Z,8.56
2019-01-05T14:47:14.545Z,8.54
2019-01-05T14:52:34.929Z,8.53
2019-01-05T14:57:55.305Z,8.53
2019-01-05T15:03:25.235Z,8.48
2019-01-05T15:08:41.946Z,8.45
2019-01-05T15:14:02.017Z,8.41
2019-01-05T15:19:43.895Z,8.38
2019-01-05T15:25:05.546Z,8.37
2019-01-05T15:30:30.935Z,8.35
2019-01-05T15:36:07.424Z,8.30
2019-01-05T15:41:23.407Z,8.25
2019-01-05T15:46:47.637Z,8.19
2019-01-05T15:52:14.478Z,8.14
2019-01-05T15:57:33.348Z,8.13
2019-01-05T16:02:51.860Z,8.11
2019-01-05T16:08:12.220Z,8.11
2019-01-05T16:13:38.118Z,8.11
2019-01-05T16:18:59.905Z,8.07
2019-01-05T16:24:20.482Z,8.05
2019-01-05T16:29:42.444Z,8.05
2019-01-05T16:35:03.236Z,7.97
2019-01-05T16:40:24.132Z,7.88
2019-01-05T16:45:45.926Z,7.82
2019-01-05T16:51:04.790Z,7.80
2019-01-05T16:56:25.311Z,7.77
2019-01-05T17:01:45.772Z,7.70
2019-01-05T17:07:07.760Z,7.68
2019-01-05T17:12:29.149Z,7.66
2019-01-05T17:17:40.272Z,7.61
2019-01-05T17:23:14.791Z,7.58
2019-01-05T17:28:35.674Z,7.52
2019-01-05T17:34:03.746Z,7.49
2019-01-05T17:39:20.071Z,7.48
2019-01-05T17:44:35.784Z,7.41
2019-01-05T17:49:56.234Z,7.34
2019-01-05T17:55:20.239Z,7.30
2019-01-05T18:00:41.704Z,7.18
2019-01-05T18:06:15.736Z,7.08
2019-01-05T18:11:40.934Z,7.08
2019-01-05T18:17:03.085Z,7.06
2019-01-05T18:22:37.463Z,6.99
2019-01-05T18:27:57.954Z,6.94
2019-01-05T18:33:19.855Z,6.86
2019-01-05T18:38:34.680Z,6.77
2019-01-05T18:44:05.117Z,6.73
2019-01-05T18:49:25.481Z,6.75
2019-01-05T18:54:47.367Z,6.73
2019-01-05T19:00:17.948Z,6.72
2019-01-05T19:05:33.036Z,6.71
2019-01-05T19:10:58.025Z,6.66
2019-01-05T19:16:22.721Z,6.63
2019-01-05T19:21:42.731Z,6.62
2019-01-05T19:26:59.563Z,6.60
2019-01-05T19:32:27.973Z,6.59
2019-01-05T19:37:52.741Z,6.55
2019-01-05T19:43:16.687Z,6.46
2019-01-05T19:48:37.616Z,6.43
2019-01-05T19:54:02.277Z,6.39
2019-01-05T19:59:24.821Z,6.36
2019-01-05T20:04:45.075Z,6.36
2019-01-05T20:10:13.415Z,6.24
2019-01-05T20:15:50.879Z,6.14
2019-01-05T20:21:12.513Z,6.05
2019-01-05T20:26:29.770Z,5.99
2019-01-05T20:31:53.088Z,5.91
2019-01-05T20:37:19.068Z,5.81
2019-01-05T20:42:46.868Z,5.73
2019-01-05T20:48:05.982Z,5.63
2019-01-05T20:53:37.044Z,5.58
2019-01-05T20:58:57.723Z,5.53
2019-01-05T21:04:15.900Z,5.48
2019-01-05T21:09:36.707Z,5.38
2019-01-05T21:14:56.855Z,5.29
2019-01-05T21:20:30.982Z,5.19
2019-01-05T21:25:46.649Z,5.15
2019-01-05T21:30:59.944Z,5.06
2019-01-05T21:36:21.507Z,4.99
2019-01-05T21:41:40.762Z,4.89
2019-01-05T21:47:14.859Z,4.79
2019-01-05T21:52:37.834Z,4.75
2019-01-05T21:58:00.755Z,4.70
2019-01-05T22:03:21.178Z,4.73
2019-01-05T22:08:36.431Z,4.77
2019-01-05T22:14:01.691Z,4.79
2019-01-05T22:19:17.431Z,4.77
2019-01-05T22:24:38.541Z,4.76
2019-01-05T22:30:03.192Z,4.76
2019-01-05T22:35:20.969Z,4.72
2019-01-05T22:40:39.851Z,4.73
2019-01-05T22:46:00.965Z,4.71
2019-01-05T22:51:21.325Z,4.72
2019-01-05T22:56:46.840Z,4.75
2019-01-05T23:02:11.757Z,4.77
2019-01-05T23:07:34.220Z,4.77
2019-01-05T23:12:54.970Z,4.78
2019-01-05T23:18:16.889Z,4.76
2019-01-05T23:23:36.905Z,4.75
2019-01-05T23:29:10.726Z,4.73
2019-01-05T23:34:19.979Z,4.69
2019-01-05T23:39:59.884Z,4.64
2019-01-05T23:45:19.437Z,4.65
2019-01-05T23:50:37.930Z,4.65
2019-01-05T23:56:02.381Z,4.64
